createdAt,value
2019-02-14T00:01:57.555Z,10.07
2019-02-14T00:04:29.257Z,9.57
2019-02-14T00:07:00.756Z,9.30
2019-02-14T00:09:32.397Z,9.33
2019-02-14T00:12:04.278Z,8.50
2019-02-14T00:14:36.098Z,8.83
2019-02-14T00:17:07.605Z,8.20
2019-02-14T00:19:39.303Z,8.70
2019-02-14T00:22:10.752Z,8.50
2019-02-14T00:24:42.491Z,7.87
2019-02-14T00:27:14.211Z,6.87
2019-02-14T00:29:45.695Z,7.53
2019-02-14T00:32:17.122Z,6.90
2019-02-14T00:34:48.640Z,7.20
2019-02-14T00:37:20.248Z,7.87
2019-02-14T00:39:52.027Z,6.47
2019-02-14T00:42:23.783Z,7.33
2019-02-14T00:44:55.457Z,7.13
2019-02-14T00:47:26.900Z,6.43
2019-02-14T00:49:58.450Z,7.00
2019-02-14T00:52:29.916Z,7.30
2019-02-14T00:55:01.559Z,6.60
2019-02-14T00:57:33.569Z,6.93
2019-02-14T01:00:06.013Z,6.60
2019-02-14T01:02:37.753Z,7.03
2019-02-14T01:05:09.509Z,6.83
2019-02-14T01:07:41.058Z,7.53
2019-02-14T01:10:12.601Z,7.07
2019-02-14T01:12:44.184Z,7.03
2019-02-14T01:15:17.576Z,7.50
2019-02-14T01:17:49.123Z,6.50
2019-02-14T01:20:20.886Z,7.07
2019-02-14T01:22:52.387Z,5.83
2019-02-14T01:25:23.826Z,6.93
2019-02-14T01:27:55.500Z,7.13
2019-02-14T01:30:27.306Z,6.67
2019-02-14T01:32:59.162Z,8.10
2019-02-14T01:35:30.625Z,7.37
2019-02-14T01:38:02.169Z,7.50
2019-02-14T01:40:33.613Z,6.20
2019-02-14T01:43:05.081Z,7.47
2019-02-14T01:45:36.746Z,5.97
2019-02-14T01:48:08.209Z,6.80
2019-02-14T01:50:39.742Z,6.67
2019-02-14T01:53:11.270Z,5.73
2019-02-14T01:55:42.757Z,5.93
2019-02-14T01:58:14.478Z,6.47
2019-02-14T02:00:46.164Z,6.63
2019-02-14T02:03:17.682Z,6.13
2019-02-14T02:05:51.042Z,7.23
2019-02-14T02:08:22.723Z,6.13
2019-02-14T02:10:54.515Z,6.00
2019-02-14T02:13:26.101Z,6.83
2019-02-14T02:15:57.676Z,5.83
2019-02-14T02:18:29.995Z,7.07
2019-02-14T02:21:01.768Z,6.67
2019-02-14T02:23:33.259Z,6.67
2019-02-14T02:26:04.975Z,6.73
2019-02-14T02:28:37.288Z,6.37
2019-02-14T02:31:09.045Z,7.23
2019-02-14T02:33:40.495Z,6.73
2019-02-14T02:36:12.115Z,6.63
2019-02-14T02:38:43.679Z,5.77
2019-02-14T02:41:15.421Z,6.83
2019-02-14T02:43:46.879Z,6.73
2019-02-14T02:46:18.632Z,5.30
2019-02-14T02:48:50.144Z,6.90
2019-02-14T02:51:21.839Z,6.60
2019-02-14T02:53:53.321Z,6.17
2019-02-14T02:56:24.965Z,6.10
2019-02-14T02:58:56.709Z,7.03
2019-02-14T03:01:28.367Z,5.73
2019-02-14T03:03:59.863Z,6.63
2019-02-14T03:06:31.380Z,6.57
2019-02-14T03:09:03.360Z,6.77
2019-02-14T03:11:36.752Z,6.40
2019-02-14T03:14:08.184Z,5.80
2019-02-14T03:16:39.849Z,6.93
2019-02-14T03:19:11.437Z,6.03
2019-02-14T03:21:43.117Z,5.80
2019-02-14T03:24:14.623Z,6.83
2019-02-14T03:26:46.266Z,5.97
2019-02-14T03:29:17.705Z,5.77
2019-02-14T03:31:49.181Z,6.83
2019-02-14T03:34:20.622Z,6.57
2019-02-14T03:36:52.378Z,6.50
2019-02-14T03:39:23.927Z,5.00
2019-02-14T03:41:55.590Z,5.90
2019-02-14T03:44:27.249Z,5.53
2019-02-14T03:46:58.921Z,6.27
2019-02-14T03:49:30.485Z,6.10
2019-02-14T03:52:02.218Z,5.30
2019-02-14T03:54:33.692Z,5.53
2019-02-14T03:57:05.188Z,5.80
2019-02-14T03:59:36.854Z,5.50
2019-02-14T04:02:08.642Z,6.17
2019-02-14T04:04:40.118Z,5.63
2019-02-14T04:07:12.277Z,6.23
2019-02-14T04:09:44.765Z,5.37
2019-02-14T04:12:16.487Z,5.70
2019-02-14T04:14:47.935Z,5.03
2019-02-14T04:17:19.611Z,6.17
2019-02-14T04:19:51.146Z,5.90
2019-02-14T04:22:22.803Z,6.30
2019-02-14T04:24:54.277Z,5.43
2019-02-14T04:27:25.923Z,5.20
2019-02-14T04:29:57.650Z,4.93
2019-02-14T04:32:29.400Z,5.57
2019-02-14T04:35:00.843Z,5.90
2019-02-14T04:37:32.644Z,5.07
2019-02-14T04:40:04.098Z,6.43
2019-02-14T04:42:35.860Z,6.43
2019-02-14T04:45:08.350Z,4.33
2019-02-14T04:47:39.985Z,5.70
2019-02-14T04:50:11.490Z,6.63
2019-02-14T04:52:43.199Z,7.03
2019-02-14T04:55:14.642Z,5.67
2019-02-14T04:57:46.511Z,5.23
2019-02-14T05:00:18.191Z,5.67
2019-02-14T05:02:49.932Z,5.80
2019-02-14T05:05:21.372Z,6.67
2019-02-14T05:07:52.924Z,5.70
2019-02-14T05:10:24.367Z,6.17
2019-02-14T05:12:56.148Z,6.10
2019-02-14T05:15:27.664Z,5.50
2019-02-14T05:17:59.356Z,6.17
2019-02-14T05:20:30.821Z,6.03
2019-02-14T05:23:02.400Z,6.40
2019-02-14T05:25:33.852Z,5.63
2019-02-14T05:28:05.574Z,5.90
2019-02-14T05:30:37.102Z,5.50
2019-02-14T05:33:08.778Z,5.17
2019-02-14T05:35:40.210Z,5.70
2019-02-14T05:38:11.983Z,5.30
2019-02-14T05:40:43.466Z,5.10
2019-02-14T05:43:15.202Z,6.10
2019-02-14T05:45:46.613Z,5.70
2019-02-14T05:48:18.318Z,6.57
2019-02-14T05:50:49.749Z,6.03
2019-02-14T05:53:21.321Z,5.60
2019-02-14T05:55:52.777Z,6.07
2019-02-14T05:58:24.434Z,5.43
2019-02-14T06:00:56.186Z,5.63
2019-02-14T06:03:27.962Z,5.30
2019-02-14T06:05:59.441Z,5.77
2019-02-14T06:08:30.991Z,5.57
2019-02-14T06:11:02.415Z,5.07
2019-02-14T06:13:33.868Z,6.20
2019-02-14T06:16:05.943Z,5.43
2019-02-14T06:18:37.477Z,5.33
2019-02-14T06:21:08.923Z,6.03
2019-02-14T06:23:40.451Z,5.90
2019-02-14T06:26:11.900Z,5.50
2019-02-14T06:28:44.817Z,6.43
2019-02-14T06:31:16.557Z,4.50
2019-02-14T06:33:48.331Z,4.93
2019-02-14T06:36:19.786Z,6.00
2019-02-14T06:38:51.538Z,5.70
2019-02-14T06:41:22.960Z,4.60
2019-02-14T06:43:54.566Z,5.80
2019-02-14T06:46:25.984Z,6.07
2019-02-14T06:48:57.772Z,5.67
2019-02-14T06:51:29.455Z,5.67
2019-02-14T06:54:01.280Z,6.57
2019-02-14T06:56:32.723Z,6.27
2019-02-14T06:59:04.488Z,5.40
2019-02-14T07:01:36.385Z,5.40
2019-02-14T07:04:07.962Z,5.87
2019-02-14T07:06:39.425Z,5.60
2019-02-14T07:09:11.081Z,4.33
2019-02-14T07:11:42.579Z,5.57
2019-02-14T07:14:14.191Z,5.60
2019-02-14T07:16:45.948Z,5.17
2019-02-14T07:19:17.400Z,6.67
2019-02-14T07:21:48.905Z,5.20
2019-02-14T07:24:20.526Z,7.23
2019-02-14T07:26:51.980Z,7.80
2019-02-14T07:29:23.767Z,7.87
2019-02-14T07:31:55.512Z,7.97
2019-02-14T07:34:27.079Z,7.60
2019-02-14T07:36:58.532Z,7.97
2019-02-14T07:39:30.289Z,6.73
2019-02-14T07:42:01.719Z,7.63
2019-02-14T07:44:33.590Z,7.37
2019-02-14T07:47:05.301Z,9.03
2019-02-14T07:49:36.996Z,8.40
2019-02-14T07:52:08.508Z,7.43
2019-02-14T07:54:40.207Z,8.23
2019-02-14T07:57:11.649Z,6.27
2019-02-14T07:59:43.351Z,6.27
2019-02-14T08:02:14.933Z,6.10
2019-02-14T08:04:46.537Z,6.53
2019-02-14T08:07:18.225Z,5.83
2019-02-14T08:09:49.778Z,6.43
2019-02-14T08:12:21.244Z,6.03
2019-02-14T08:14:53.054Z,5.47
2019-02-14T08:17:24.802Z,5.40
2019-02-14T08:19:56.571Z,5.40
2019-02-14T08:22:28.114Z,5.73
2019-02-14T08:24:59.891Z,5.27
2019-02-14T08:27:31.340Z,5.63
2019-02-14T08:30:03.115Z,4.63
2019-02-14T08:32:36.201Z,4.40
2019-02-14T08:35:08.221Z,6.23
2019-02-14T08:37:45.613Z,5.97
2019-02-14T08:40:17.562Z,6.00
2019-02-14T08:42:48.996Z,5.57
2019-02-14T08:45:20.720Z,5.13
2019-02-14T08:47:52.473Z,4.80
2019-02-14T08:50:24.228Z,5.10
2019-02-14T08:52:55.713Z,5.10
2019-02-14T08:55:27.582Z,4.23
2019-02-14T08:57:59.083Z,5.60
2019-02-14T09:00:30.756Z,4.60
2019-02-14T09:03:02.564Z,5.03
2019-02-14T09:05:34.378Z,4.93
2019-02-14T09:08:05.922Z,5.50
2019-02-14T09:10:37.451Z,4.93
2019-02-14T09:13:16.936Z,5.17
2019-02-14T09:15:43.767Z,5.23
2019-02-14T09:18:15.507Z,5.30
2019-02-14T09:20:47.292Z,6.00
2019-02-14T09:23:18.760Z,5.80
2019-02-14T09:25:50.450Z,5.40
2019-02-14T09:28:21.980Z,5.10
2019-02-14T09:30:53.674Z,5.30
2019-02-14T09:33:25.163Z,5.50
2019-02-14T09:35:56.919Z,5.53
2019-02-14T09:38:28.386Z,5.13
2019-02-14T09:40:59.915Z,5.00
2019-02-14T09:43:31.386Z,5.70
2019-02-14T09:46:02.920Z,4.80
2019-02-14T09:48:34.434Z,5.93
2019-02-14T09:51:05.903Z,5.63
2019-02-14T09:53:37.352Z,5.50
2019-02-14T09:56:09.165Z,6.23
2019-02-14T09:58:40.874Z,4.90
2019-02-14T10:01:12.454Z,5.70
2019-02-14T10:03:44.173Z,5.60
2019-02-14T10:06:15.982Z,4.83
2019-02-14T10:08:47.549Z,4.40
2019-02-14T10:11:19.219Z,4.17
2019-02-14T10:13:50.687Z,5.40
2019-02-14T10:16:22.224Z,5.67
2019-02-14T10:18:55.147Z,5.03
2019-02-14T10:21:27.249Z,5.37
2019-02-14T10:23:58.731Z,5.50
2019-02-14T10:26:30.178Z,4.97
2019-02-14T10:29:01.699Z,4.87
2019-02-14T10:31:33.212Z,3.93
2019-02-14T10:34:04.998Z,4.07
2019-02-14T10:36:36.611Z,4.40
2019-02-14T10:39:08.155Z,4.80
2019-02-14T10:41:39.730Z,4.73
2019-02-14T10:44:11.262Z,4.50
2019-02-14T10:46:42.867Z,4.53
2019-02-14T10:49:14.555Z,4.17
2019-02-14T10:51:46.077Z,4.60
2019-02-14T10:54:17.556Z,4.70
2019-02-14T10:56:49.410Z,4.40
2019-02-14T10:59:20.942Z,4.43
2019-02-14T11:01:52.615Z,4.87
2019-02-14T11:04:24.330Z,4.17
2019-02-14T11:06:56.052Z,4.70
2019-02-14T11:09:27.650Z,4.00
2019-02-14T11:11:59.466Z,4.60
2019-02-14T11:14:31.115Z,3.87
2019-02-14T11:17:02.766Z,5.33
2019-02-14T11:19:34.491Z,4.33
2019-02-14T11:22:06.173Z,4.87
2019-02-14T11:24:37.675Z,4.63
2019-02-14T11:27:09.393Z,4.33
2019-02-14T11:29:40.858Z,5.67
2019-02-14T11:32:12.494Z,4.53
2019-02-14T11:34:43.962Z,5.47
2019-02-14T11:37:15.721Z,4.90
2019-02-14T11:39:47.523Z,4.57
2019-02-14T11:42:19.240Z,4.50
2019-02-14T11:44:50.675Z,5.60
2019-02-14T11:47:22.449Z,4.90
2019-02-14T11:49:54.278Z,5.03
2019-02-14T11:52:25.968Z,3.93
2019-02-14T11:54:57.429Z,3.93
2019-02-14T11:57:29.243Z,4.10
2019-02-14T12:00:00.689Z,5.07
2019-02-14T12:02:32.349Z,3.77
2019-02-14T12:05:04.113Z,5.07
2019-02-14T12:07:35.890Z,4.57
2019-02-14T12:10:13.379Z,4.10
2019-02-14T12:12:42.488Z,5.13
2019-02-14T12:15:14.000Z,4.53
2019-02-14T12:17:46.111Z,4.17
2019-02-14T12:20:17.785Z,4.50
2019-02-14T12:22:49.627Z,3.87
2019-02-14T12:25:21.427Z,5.20
2019-02-14T12:27:53.251Z,5.17
2019-02-14T12:30:24.686Z,4.40
2019-02-14T12:32:56.550Z,4.20
2019-02-14T12:35:28.393Z,4.83
2019-02-14T12:38:00.301Z,3.80
2019-02-14T12:40:31.750Z,3.63
2019-02-14T12:43:03.426Z,4.53
2019-02-14T12:45:34.913Z,5.07
2019-02-14T12:48:06.497Z,5.17
2019-02-14T12:50:38.329Z,4.00
2019-02-14T12:53:09.911Z,4.77
2019-02-14T12:55:41.422Z,5.17
2019-02-14T12:58:13.035Z,4.30
2019-02-14T13:00:44.468Z,4.60
2019-02-14T13:03:16.015Z,5.03
2019-02-14T13:05:47.676Z,4.60
2019-02-14T13:08:19.245Z,4.20
2019-02-14T13:10:50.751Z,4.50
2019-02-14T13:13:22.276Z,4.53
2019-02-14T13:15:53.811Z,4.73
2019-02-14T13:18:25.593Z,4.77
2019-02-14T13:20:57.379Z,4.10
2019-02-14T13:23:29.170Z,4.30
2019-02-14T13:26:00.711Z,4.07
2019-02-14T13:28:32.498Z,3.73
2019-02-14T13:31:04.168Z,3.73
2019-02-14T13:33:36.105Z,3.80
2019-02-14T13:36:08.454Z,4.30
2019-02-14T13:38:40.334Z,4.00
2019-02-14T13:41:11.865Z,4.20
2019-02-14T13:43:43.786Z,4.13
2019-02-14T13:46:15.290Z,3.07
2019-02-14T13:48:46.982Z,3.97
2019-02-14T13:51:18.749Z,3.73
2019-02-14T13:53:50.435Z,3.87
2019-02-14T13:56:23.181Z,4.37
2019-02-14T13:58:55.024Z,3.73
2019-02-14T14:01:26.561Z,3.97
2019-02-14T14:03:58.336Z,4.77
2019-02-14T14:06:30.159Z,5.53
2019-02-14T14:09:01.979Z,4.77
2019-02-14T14:11:35.224Z,5.13
2019-02-14T14:14:06.801Z,4.87
2019-02-14T14:16:38.267Z,5.40
2019-02-14T14:19:10.133Z,5.67
2019-02-14T14:21:41.951Z,6.33
2019-02-14T14:24:13.500Z,7.23
2019-02-14T14:26:44.953Z,6.57
2019-02-14T14:29:16.742Z,5.70
2019-02-14T14:31:48.198Z,4.87
2019-02-14T14:34:19.956Z,5.97
2019-02-14T14:36:51.827Z,5.83
2019-02-14T14:39:23.569Z,6.33
2019-02-14T14:41:55.129Z,6.00
2019-02-14T14:44:41.116Z,7.00
2019-02-14T14:47:18.605Z,6.53
2019-02-14T14:49:50.494Z,6.62
2019-02-14T14:52:22.046Z,6.50
2019-02-14T14:54:53.988Z,7.28
2019-02-14T14:57:25.621Z,7.58
2019-02-14T14:59:57.431Z,7.30
2019-02-14T15:02:28.995Z,7.90
2019-02-14T15:05:01.044Z,15.60
2019-02-14T15:07:32.985Z,18.17
2019-02-14T15:10:04.904Z,11.97
2019-02-14T15:12:36.781Z,13.17
2019-02-14T15:15:08.371Z,14.07
2019-02-14T15:17:40.088Z,10.80
2019-02-14T15:20:12.122Z,10.73
2019-02-14T15:22:44.009Z,10.43
2019-02-14T15:25:15.729Z,12.37
2019-02-14T15:27:47.346Z,13.50
2019-02-14T15:30:19.034Z,13.27
2019-02-14T15:32:50.788Z,15.57
2019-02-14T15:35:22.542Z,16.27
2019-02-14T15:37:54.448Z,12.83
2019-02-14T15:40:26.069Z,12.23
2019-02-14T15:42:57.543Z,11.10
2019-02-14T15:45:29.394Z,19.73
2019-02-14T15:48:00.901Z,18.73
2019-02-14T15:50:32.485Z,18.07
2019-02-14T15:53:04.288Z,14.30
2019-02-14T15:55:35.939Z,13.03
2019-02-14T15:58:09.264Z,14.47
2019-02-14T16:00:40.851Z,16.53
2019-02-14T16:03:12.377Z,13.87
2019-02-14T16:05:44.167Z,15.07
2019-02-14T16:08:16.037Z,18.53
2019-02-14T16:10:49.707Z,17.23
2019-02-14T16:13:21.906Z,16.70
2019-02-14T16:15:55.585Z,19.73
2019-02-14T16:18:26.728Z,22.07
2019-02-14T16:20:58.325Z,19.63
2019-02-14T16:23:31.938Z,20.07
2019-02-14T16:26:03.631Z,20.53
2019-02-14T16:28:36.017Z,19.73
2019-02-14T16:31:08.747Z,19.80
2019-02-14T16:33:40.740Z,21.87
2019-02-14T16:36:12.570Z,21.87
2019-02-14T16:38:44.533Z,19.27
2019-02-14T16:41:16.419Z,20.47
2019-02-14T16:43:47.947Z,20.63
2019-02-14T16:46:19.637Z,20.03
2019-02-14T16:48:51.633Z,18.83
2019-02-14T16:51:23.277Z,19.00
2019-02-14T16:53:54.807Z,18.63
2019-02-14T16:56:26.318Z,18.03
2019-02-14T16:58:57.916Z,17.87
2019-02-14T17:01:29.481Z,17.47
2019-02-14T17:04:01.053Z,17.87
2019-02-14T17:06:32.858Z,18.50
2019-02-14T17:09:06.188Z,21.17
2019-02-14T17:11:39.380Z,17.93
2019-02-14T17:14:10.968Z,18.57
2019-02-14T17:16:42.624Z,20.23
2019-02-14T17:19:14.177Z,21.97
2019-02-14T17:21:46.079Z,21.93
2019-02-14T17:24:17.994Z,18.60
2019-02-14T17:26:49.901Z,25.10
2019-02-14T17:29:21.508Z,18.73
2019-02-14T17:31:53.288Z,19.13
2019-02-14T17:34:24.911Z,17.20
2019-02-14T17:36:56.823Z,17.93
2019-02-14T17:39:28.503Z,17.57
2019-02-14T17:42:00.261Z,28.57
2019-02-14T17:44:31.887Z,25.70
2019-02-14T17:47:03.556Z,17.07
2019-02-14T17:49:35.304Z,20.33
2019-02-14T17:52:07.153Z,21.43
2019-02-14T17:54:39.036Z,19.30
2019-02-14T17:57:11.039Z,17.77
2019-02-14T17:59:42.773Z,17.77
2019-02-14T18:02:16.176Z,18.60
2019-02-14T18:04:48.135Z,23.57
2019-02-14T18:07:20.243Z,16.43
2019-02-14T18:09:52.593Z,16.67
2019-02-14T18:12:24.512Z,16.63
2019-02-14T18:14:56.146Z,13.37
2019-02-14T18:17:27.913Z,15.67
2019-02-14T18:19:59.628Z,14.03
2019-02-14T18:22:31.439Z,14.43
2019-02-14T18:25:04.001Z,16.17
2019-02-14T18:27:36.223Z,15.47
2019-02-14T18:30:09.634Z,16.43
2019-02-14T18:32:41.692Z,15.67
2019-02-14T18:35:13.539Z,17.47
2019-02-14T18:37:45.796Z,15.23
2019-02-14T18:40:17.983Z,15.47
2019-02-14T18:42:50.747Z,14.87
2019-02-14T18:45:22.744Z,14.73
2019-02-14T18:47:55.090Z,13.43
2019-02-14T18:50:26.775Z,14.33
2019-02-14T18:52:58.922Z,13.97
2019-02-14T18:55:31.598Z,14.43
2019-02-14T18:58:03.403Z,13.33
2019-02-14T19:00:35.603Z,15.53
2019-02-14T19:03:07.799Z,13.37
2019-02-14T19:05:39.582Z,15.87
2019-02-14T19:08:11.350Z,15.20
2019-02-14T19:10:43.543Z,14.37
2019-02-14T19:13:15.295Z,14.33
2019-02-14T19:15:46.946Z,16.13
2019-02-14T19:18:18.840Z,15.77
2019-02-14T19:20:51.057Z,15.37
2019-02-14T19:23:24.439Z,19.70
2019-02-14T19:25:57.191Z,18.43
2019-02-14T19:28:30.889Z,18.67
2019-02-14T19:31:02.801Z,19.20
2019-02-14T19:33:35.611Z,17.47
2019-02-14T19:36:07.641Z,17.63
2019-02-14T19:38:40.129Z,17.27
2019-02-14T19:41:13.027Z,20.63
2019-02-14T19:43:46.286Z,20.43
2019-02-14T19:46:19.112Z,19.60
2019-02-14T19:48:52.042Z,18.50
2019-02-14T19:51:24.689Z,17.53
2019-02-14T19:53:57.166Z,18.23
2019-02-14T19:56:29.681Z,17.47
2019-02-14T19:59:02.416Z,17.07
2019-02-14T20:01:35.173Z,16.30
2019-02-14T20:04:09.065Z,18.77
2019-02-14T20:06:41.098Z,23.23
2019-02-14T20:09:13.878Z,23.53
2019-02-14T20:11:46.206Z,18.83
2019-02-14T20:14:18.417Z,19.90
2019-02-14T20:16:50.216Z,17.07
2019-02-14T20:19:23.340Z,17.50
2019-02-14T20:21:56.257Z,17.50
2019-02-14T20:24:28.848Z,17.00
2019-02-14T20:27:01.975Z,15.80
2019-02-14T20:29:35.637Z,17.80
2019-02-14T20:32:08.223Z,18.50
2019-02-14T20:34:40.998Z,20.03
2019-02-14T20:37:13.385Z,23.07
2019-02-14T20:39:46.322Z,35.70
2019-02-14T20:42:19.124Z,29.47
2019-02-14T20:44:52.026Z,27.93
2019-02-14T20:47:24.228Z,26.50
2019-02-14T20:49:56.994Z,30.13
2019-02-14T20:52:29.462Z,25.80
2019-02-14T20:55:02.723Z,25.50
2019-02-14T20:57:36.121Z,24.80
2019-02-14T21:00:16.752Z,24.13
2019-02-14T21:02:49.676Z,24.67
2019-02-14T21:05:21.746Z,24.37
2019-02-14T21:07:53.830Z,21.70
2019-02-14T21:10:26.388Z,21.40
2019-02-14T21:12:59.554Z,21.73
2019-02-14T21:15:32.862Z,22.67
2019-02-14T21:18:05.134Z,22.77
2019-02-14T21:20:37.410Z,25.47
2019-02-14T21:23:09.738Z,32.07
2019-02-14T21:25:42.435Z,26.50
2019-02-14T21:28:15.096Z,22.57
2019-02-14T21:30:47.286Z,21.73
2019-02-14T21:33:19.613Z,23.23
2019-02-14T21:35:52.622Z,22.43
2019-02-14T21:38:24.930Z,23.27
2019-02-14T21:40:56.849Z,22.40
2019-02-14T21:43:29.347Z,23.17
2019-02-14T21:46:01.714Z,21.47
2019-02-14T21:48:35.877Z,23.27
2019-02-14T21:51:07.855Z,24.20
2019-02-14T21:53:39.630Z,19.37
2019-02-14T21:56:12.850Z,19.73
2019-02-14T21:58:44.638Z,23.63
2019-02-14T22:01:18.038Z,25.03
2019-02-14T22:03:49.738Z,22.87
2019-02-14T22:06:21.718Z,22.17
2019-02-14T22:08:53.353Z,23.07
2019-02-14T22:11:25.640Z,22.13
2019-02-14T22:13:57.614Z,23.53
2019-02-14T22:16:29.697Z,23.00
2019-02-14T22:19:01.533Z,24.40
2019-02-14T22:21:33.457Z,24.20
2019-02-14T22:24:05.116Z,23.37
2019-02-14T22:26:37.101Z,22.10
2019-02-14T22:29:09.102Z,23.77
2019-02-14T22:31:40.964Z,24.90
2019-02-14T22:34:12.597Z,24.87
2019-02-14T22:36:44.444Z,23.77
2019-02-14T22:39:16.072Z,22.33
2019-02-14T22:41:47.939Z,23.93
2019-02-14T22:44:19.699Z,25.10
2019-02-14T22:46:51.570Z,22.30
2019-02-14T22:49:23.139Z,22.00
2019-02-14T22:51:54.883Z,23.53
2019-02-14T22:54:26.360Z,28.73
2019-02-14T22:56:58.208Z,27.93
2019-02-14T22:59:29.777Z,27.67
2019-02-14T23:02:01.431Z,24.83
2019-02-14T23:04:33.125Z,29.83
2019-02-14T23:07:05.330Z,31.00
2019-02-14T23:09:36.788Z,27.53
2019-02-14T23:12:08.548Z,28.07
2019-02-14T23:14:40.357Z,27.97
2019-02-14T23:17:11.957Z,25.93
2019-02-14T23:19:43.503Z,26.10
2019-02-14T23:22:15.489Z,26.73
2019-02-14T23:24:46.985Z,26.57
2019-02-14T23:27:18.911Z,26.07
2019-02-14T23:29:50.492Z,25.93
2019-02-14T23:32:22.513Z,25.47
2019-02-14T23:34:54.007Z,26.30
2019-02-14T23:37:25.735Z,26.93
2019-02-14T23:39:57.204Z,27.47
2019-02-14T23:42:28.927Z,25.70
2019-02-14T23:45:00.377Z,28.30
2019-02-14T23:47:32.256Z,26.53
2019-02-14T23:50:04.789Z,25.57
2019-02-14T23:52:36.251Z,26.57
2019-02-14T23:55:07.715Z,25.73
2019-02-14T23:57:39.292Z,27.70
